createdAt,value
2022-08-23T00:01:39.221Z,19.13
2022-08-23T00:04:12.835Z,19.15
2022-08-23T00:06:42.450Z,19.17
2022-08-23T00:09:12.186Z,19.18
2022-08-23T00:11:49.655Z,19.13
2022-08-23T00:14:27.213Z,19.12
2022-08-23T00:16:57.754Z,19.12
2022-08-23T00:19:27.596Z,19.16
2022-08-23T00:21:56.794Z,19.16
2022-08-23T00:24:26.129Z,19.15
2022-08-23T00:27:10.715Z,19.12
2022-08-23T00:29:50.695Z,19.11
2022-08-23T00:32:23.570Z,19.10
2022-08-23T00:34:52.239Z,19.04
2022-08-23T00:37:21.937Z,19.01
2022-08-23T00:39:49.810Z,18.99
2022-08-23T00:43:16.042Z,18.98
2022-08-23T00:46:17.586Z,18.97
2022-08-23T00:48:46.152Z,18.99
2022-08-23T00:51:22.813Z,18.94
2022-08-23T00:53:58.637Z,18.83
2022-08-23T00:56:30.599Z,18.80
2022-08-23T00:58:59.314Z,18.77
2022-08-23T01:01:28.074Z,18.76
2022-08-23T01:04:04.733Z,18.79
2022-08-23T01:06:45.435Z,18.83
2022-08-23T01:09:18.711Z,18.81
2022-08-23T01:12:00.186Z,18.79
2022-08-23T01:14:40.784Z,18.82
2022-08-23T01:17:46.106Z,18.82
2022-08-23T01:20:21.456Z,18.85
2022-08-23T01:23:04.343Z,18.95
2022-08-23T01:25:34.688Z,18.96
2022-08-23T01:28:03.578Z,19.06
2022-08-23T01:30:33.779Z,18.99
2022-08-23T01:33:07.354Z,18.97
2022-08-23T01:35:44.887Z,18.96
2022-08-23T01:38:14.333Z,18.91
2022-08-23T01:40:44.882Z,18.90
2022-08-23T01:43:15.428Z,18.87
2022-08-23T01:45:43.798Z,18.84
2022-08-23T01:48:14.976Z,18.87
2022-08-23T01:50:43.062Z,18.81
2022-08-23T01:53:12.151Z,18.78
2022-08-23T01:55:44.255Z,18.79
2022-08-23T01:58:12.938Z,18.79
2022-08-23T02:00:44.395Z,18.79
2022-08-23T02:03:14.317Z,18.77
2022-08-23T02:05:43.440Z,18.76
2022-08-23T02:08:31.675Z,18.71
2022-08-23T02:11:07.689Z,18.70
2022-08-23T02:13:36.314Z,18.71
2022-08-23T02:16:05.030Z,18.75
2022-08-23T02:18:33.681Z,18.76
2022-08-23T02:21:02.101Z,18.75
2022-08-23T02:23:30.522Z,18.77
2022-08-23T02:25:58.383Z,18.78
2022-08-23T02:28:26.204Z,18.80
2022-08-23T02:30:54.719Z,18.81
2022-08-23T02:33:23.771Z,18.81
2022-08-23T02:35:51.834Z,18.79
2022-08-23T02:38:20.714Z,18.80
2022-08-23T02:41:00.609Z,18.83
2022-08-23T02:43:29.079Z,18.84
2022-08-23T02:45:57.166Z,18.86
2022-08-23T02:48:25.671Z,18.89
2022-08-23T02:51:05.673Z,18.83
2022-08-23T02:53:34.058Z,18.78
2022-08-23T02:56:03.026Z,18.75
2022-08-23T02:58:30.876Z,18.78
2022-08-23T03:00:59.688Z,18.85
2022-08-23T03:03:28.358Z,18.91
2022-08-23T03:05:57.243Z,18.95
2022-08-23T03:08:45.649Z,18.86
2022-08-23T03:11:18.149Z,18.81
2022-08-23T03:13:46.857Z,18.84
2022-08-23T03:16:17.108Z,18.82
2022-08-23T03:18:47.783Z,18.77
2022-08-23T03:21:17.234Z,18.75
2022-08-23T03:23:46.280Z,18.74
2022-08-23T03:26:16.326Z,18.77
2022-08-23T03:28:45.772Z,18.86
2022-08-23T03:31:16.825Z,18.84
2022-08-23T03:33:54.258Z,18.85
2022-08-23T03:36:28.101Z,18.83
2022-08-23T03:38:56.769Z,18.79
2022-08-23T03:41:25.583Z,18.78
2022-08-23T03:43:53.454Z,18.75
2022-08-23T03:46:24.436Z,18.70
2022-08-23T03:49:01.214Z,18.69
2022-08-23T03:51:34.416Z,18.69
2022-08-23T03:54:03.251Z,18.71
2022-08-23T03:56:38.775Z,18.72
2022-08-23T03:59:13.758Z,18.71
2022-08-23T04:01:41.927Z,18.72
2022-08-23T04:04:10.811Z,18.73
2022-08-23T04:06:45.102Z,18.75
2022-08-23T04:09:15.406Z,18.75
2022-08-23T04:11:44.801Z,18.73
2022-08-23T04:14:13.666Z,18.71
2022-08-23T04:16:42.063Z,18.75
2022-08-23T04:19:14.809Z,18.76
2022-08-23T04:21:52.828Z,18.75
2022-08-23T04:24:21.022Z,18.81
2022-08-23T04:26:49.512Z,18.83
2022-08-23T04:29:33.655Z,18.83
2022-08-23T04:32:05.617Z,18.80
2022-08-23T04:34:39.906Z,18.78
2022-08-23T04:37:10.060Z,18.78
2022-08-23T04:39:58.793Z,18.79
2022-08-23T04:42:30.005Z,18.79
2022-08-23T04:44:57.848Z,18.79
2022-08-23T04:47:25.686Z,18.81
2022-08-23T04:49:53.974Z,18.86
2022-08-23T04:52:21.852Z,18.88
2022-08-23T04:54:50.349Z,18.95
2022-08-23T04:57:36.797Z,18.95
2022-08-23T05:00:07.009Z,18.92
2022-08-23T05:02:36.174Z,18.91
2022-08-23T05:05:05.571Z,18.91
2022-08-23T05:07:42.392Z,18.94
2022-08-23T05:10:16.340Z,18.99
2022-08-23T05:12:48.706Z,19.03
2022-08-23T05:15:17.589Z,19.03
2022-08-23T05:17:47.638Z,19.08
2022-08-23T05:20:15.607Z,19.12
2022-08-23T05:22:43.556Z,19.09
2022-08-23T05:25:22.111Z,19.12
2022-08-23T05:27:50.480Z,19.13
2022-08-23T05:30:18.395Z,19.14
2022-08-23T05:32:46.669Z,19.20
2022-08-23T05:35:14.702Z,19.23
2022-08-23T05:37:44.309Z,19.22
2022-08-23T05:40:12.156Z,19.20
2022-08-23T05:42:48.667Z,19.24
2022-08-23T05:45:21.712Z,19.27
2022-08-23T05:47:50.014Z,19.23
2022-08-23T05:50:26.910Z,19.20
2022-08-23T05:52:54.824Z,19.22
2022-08-23T05:55:23.609Z,19.22
2022-08-23T05:58:17.351Z,19.32
2022-08-23T06:00:45.316Z,19.33
2022-08-23T06:03:13.553Z,19.33
2022-08-23T06:05:42.168Z,19.35
2022-08-23T06:08:11.456Z,19.49
2022-08-23T06:10:42.317Z,19.51
2022-08-23T06:13:27.003Z,19.49
2022-08-23T06:15:57.515Z,19.46
2022-08-23T06:18:28.696Z,19.50
2022-08-23T06:21:09.027Z,19.54
2022-08-23T06:23:49.612Z,19.60
2022-08-23T06:26:23.990Z,19.64
2022-08-23T06:28:57.061Z,19.75
2022-08-23T06:31:45.501Z,19.86
2022-08-23T06:34:26.274Z,19.90
2022-08-23T06:37:23.200Z,19.94
2022-08-23T06:40:09.917Z,20.07
2022-08-23T06:42:49.655Z,20.19
2022-08-23T06:45:33.850Z,20.26
2022-08-23T06:48:08.226Z,20.36
2022-08-23T06:50:36.153Z,20.47
2022-08-23T06:53:22.403Z,20.48
2022-08-23T06:56:28.345Z,20.39
2022-08-23T06:59:09.414Z,20.31
2022-08-23T07:02:01.891Z,20.17
2022-08-23T07:04:53.862Z,20.17
2022-08-23T07:07:41.472Z,20.19
2022-08-23T07:10:15.494Z,20.28
2022-08-23T07:12:44.283Z,20.38
2022-08-23T07:15:14.387Z,20.40
2022-08-23T07:17:46.414Z,20.38
2022-08-23T07:20:14.526Z,20.45
2022-08-23T07:22:44.578Z,20.43
2022-08-23T07:25:12.819Z,20.35
2022-08-23T07:27:41.628Z,20.37
2022-08-23T07:30:11.633Z,20.42
2022-08-23T07:32:41.658Z,20.48
2022-08-23T07:35:21.491Z,20.60
2022-08-23T07:37:50.655Z,20.75
2022-08-23T07:40:20.574Z,20.86
2022-08-23T07:42:49.606Z,20.91
2022-08-23T07:45:18.540Z,20.95
2022-08-23T07:47:51.795Z,20.98
2022-08-23T07:50:20.130Z,21.00
2022-08-23T07:52:48.722Z,20.98
2022-08-23T07:55:16.948Z,20.99
2022-08-23T07:58:07.730Z,21.14
2022-08-23T08:00:56.265Z,21.28
2022-08-23T08:03:33.827Z,21.39
2022-08-23T08:06:43.895Z,21.46
2022-08-23T08:09:13.379Z,21.46
2022-08-23T08:11:45.267Z,21.58
2022-08-23T08:14:16.160Z,21.61
2022-08-23T08:16:52.311Z,21.52
2022-08-23T08:19:33.906Z,21.48
2022-08-23T08:22:24.568Z,21.43
2022-08-23T08:25:12.132Z,21.38
2022-08-23T08:27:42.077Z,21.25
2022-08-23T08:30:12.529Z,21.15
2022-08-23T08:32:47.198Z,21.15
2022-08-23T08:35:26.287Z,21.20
2022-08-23T08:37:54.342Z,21.27
2022-08-23T08:40:37.847Z,21.34
2022-08-23T08:43:41.510Z,21.56
2022-08-23T08:46:18.273Z,21.80
2022-08-23T08:48:53.748Z,21.90
2022-08-23T08:51:28.643Z,22.04
2022-08-23T08:53:58.939Z,22.15
2022-08-23T08:56:36.822Z,22.23
2022-08-23T08:59:18.628Z,22.42
2022-08-23T09:01:48.656Z,22.58
2022-08-23T09:04:22.239Z,22.69
2022-08-23T09:07:12.550Z,22.81
2022-08-23T09:10:09.744Z,22.97
2022-08-23T09:13:05.372Z,23.01
2022-08-23T09:15:55.955Z,23.05
2022-08-23T09:18:24.382Z,23.20
2022-08-23T09:20:55.594Z,23.27
2022-08-23T09:23:32.363Z,23.33
2022-08-23T09:26:15.689Z,23.41
2022-08-23T09:28:46.204Z,23.54
2022-08-23T09:31:47.409Z,23.51
2022-08-23T09:34:37.105Z,23.53
2022-08-23T09:37:12.967Z,23.58
2022-08-23T09:40:14.234Z,23.65
2022-08-23T09:42:42.535Z,23.74
2022-08-23T09:45:35.896Z,23.65
2022-08-23T09:48:07.006Z,23.50
2022-08-23T09:50:50.378Z,23.44
2022-08-23T09:53:28.112Z,23.42
2022-08-23T09:56:11.412Z,23.41
2022-08-23T09:58:44.791Z,23.37
2022-08-23T10:01:26.603Z,23.34
2022-08-23T10:04:21.690Z,23.21
2022-08-23T10:06:51.634Z,23.26
2022-08-23T10:09:31.558Z,23.46
2022-08-23T10:12:02.317Z,23.76
2022-08-23T10:14:33.030Z,24.11
2022-08-23T10:17:04.882Z,24.34
2022-08-23T10:20:02.960Z,24.51
2022-08-23T10:22:58.307Z,24.66
2022-08-23T10:25:42.528Z,24.74
2022-08-23T10:28:35.759Z,24.58
2022-08-23T10:31:19.566Z,24.61
2022-08-23T10:34:32.468Z,24.60
2022-08-23T10:37:37.287Z,24.44
2022-08-23T10:40:28.721Z,24.49
2022-08-23T10:43:27.263Z,24.63
2022-08-23T10:46:00.760Z,24.77
2022-08-23T10:48:51.511Z,24.91
2022-08-23T10:51:31.639Z,25.16
2022-08-23T10:54:12.612Z,25.32
2022-08-23T10:56:51.046Z,25.42
2022-08-23T10:59:25.983Z,25.48
2022-08-23T11:02:05.295Z,25.52
2022-08-23T11:04:59.119Z,25.72
2022-08-23T11:07:34.898Z,25.76
2022-08-23T11:10:25.335Z,25.73
2022-08-23T11:13:03.881Z,25.75
2022-08-23T11:15:44.822Z,25.71
2022-08-23T11:18:48.610Z,25.74
2022-08-23T11:21:33.444Z,25.79
2022-08-23T11:24:04.910Z,25.76
2022-08-23T11:26:37.768Z,25.69
2022-08-23T11:29:10.835Z,25.70
2022-08-23T11:32:14.713Z,25.85
2022-08-23T11:34:56.420Z,25.75
2022-08-23T11:37:47.629Z,25.51
2022-08-23T11:40:40.962Z,25.28
2022-08-23T11:43:32.800Z,25.14
2022-08-23T11:46:25.876Z,25.25
2022-08-23T11:49:18.555Z,25.43
2022-08-23T11:52:31.759Z,25.48
2022-08-23T11:55:31.041Z,25.47
2022-08-23T11:58:50.837Z,25.40
2022-08-23T12:01:39.418Z,25.29
2022-08-23T12:04:31.632Z,25.17
2022-08-23T12:07:07.714Z,25.11
2022-08-23T12:09:36.635Z,25.08
2022-08-23T12:12:13.647Z,25.02
2022-08-23T12:14:44.251Z,25.06
2022-08-23T12:17:12.007Z,25.22
2022-08-23T12:19:53.864Z,25.44
2022-08-23T12:22:28.681Z,25.64
2022-08-23T12:25:19.802Z,25.88
2022-08-23T12:27:57.638Z,25.94
2022-08-23T12:30:36.251Z,25.76
2022-08-23T12:33:43.398Z,25.62
2022-08-23T12:36:29.806Z,25.44
2022-08-23T12:39:19.686Z,25.36
2022-08-23T12:42:18.302Z,25.23
2022-08-23T12:45:00.311Z,25.13
2022-08-23T12:47:28.223Z,25.10
2022-08-23T12:50:21.012Z,25.04
2022-08-23T12:53:15.789Z,24.92
2022-08-23T12:55:52.219Z,24.75
2022-08-23T12:58:33.355Z,24.55
2022-08-23T13:01:16.847Z,24.42
2022-08-23T13:03:51.913Z,24.42
2022-08-23T13:06:25.702Z,24.57
2022-08-23T13:09:04.454Z,24.94
2022-08-23T13:11:34.772Z,25.20
2022-08-23T13:14:35.084Z,25.40
2022-08-23T13:17:26.634Z,25.58
2022-08-23T13:20:22.991Z,25.74
2022-08-23T13:23:15.304Z,26.01
2022-08-23T13:25:43.724Z,26.31
2022-08-23T13:28:31.176Z,26.58
2022-08-23T13:31:05.048Z,26.64
2022-08-23T13:33:32.984Z,26.85
2022-08-23T13:36:19.335Z,27.04
2022-08-23T13:38:50.361Z,27.23
2022-08-23T13:41:38.979Z,27.35
2022-08-23T13:44:09.421Z,27.19
2022-08-23T13:46:47.096Z,27.15
2022-08-23T13:49:22.576Z,27.12
2022-08-23T13:54:58.852Z,26.88
2022-08-23T13:57:30.076Z,26.74
2022-08-23T14:00:02.339Z,26.69
2022-08-23T14:02:39.289Z,26.73
2022-08-23T14:05:09.649Z,26.79
2022-08-23T14:07:37.554Z,26.80
2022-08-23T14:10:06.066Z,26.92
2022-08-23T14:12:35.889Z,26.98
2022-08-23T14:15:06.868Z,27.09
2022-08-23T14:17:43.062Z,27.10
2022-08-23T14:23:04.857Z,27.11
2022-08-23T14:25:39.942Z,27.10
2022-08-23T14:28:07.743Z,27.12
2022-08-23T14:30:37.098Z,27.03
2022-08-23T14:33:06.403Z,26.90
2022-08-23T14:35:34.387Z,26.96
2022-08-23T14:38:03.798Z,27.13
2022-08-23T14:40:36.162Z,27.22
2022-08-23T14:43:05.772Z,27.11
2022-08-23T14:45:33.552Z,27.04
2022-08-23T14:48:02.342Z,26.98
2022-08-23T14:50:31.095Z,27.06
2022-08-23T14:52:59.069Z,27.20
2022-08-23T14:55:27.315Z,27.26
2022-08-23T14:57:55.180Z,27.31
2022-08-23T15:00:23.638Z,27.42
2022-08-23T15:02:51.639Z,27.46
2022-08-23T15:05:19.626Z,27.32
2022-08-23T15:07:47.469Z,27.17
2022-08-23T15:13:28.425Z,27.08
2022-08-23T15:15:53.818Z,27.12
2022-08-23T15:18:22.159Z,27.17
2022-08-23T15:20:52.404Z,27.16
2022-08-23T15:23:21.215Z,27.21
2022-08-23T15:25:49.943Z,27.27
2022-08-23T15:28:21.379Z,27.26
2022-08-23T15:30:51.546Z,27.22
2022-08-23T15:33:23.380Z,27.08
2022-08-23T15:35:55.755Z,26.94
2022-08-23T15:38:25.726Z,26.81
2022-08-23T15:40:54.907Z,26.70
2022-08-23T15:43:28.774Z,26.66
2022-08-23T15:46:06.733Z,26.57
2022-08-23T15:48:43.954Z,26.51
2022-08-23T15:51:12.427Z,26.50
2022-08-23T15:53:40.527Z,26.36
2022-08-23T15:56:15.299Z,26.24
2022-08-23T15:58:43.709Z,26.25
2022-08-23T16:01:12.219Z,26.32
2022-08-23T16:03:42.428Z,26.32
2022-08-23T16:06:13.997Z,26.36
2022-08-23T16:08:49.523Z,26.49
2022-08-23T16:11:17.355Z,26.57
2022-08-23T16:13:48.452Z,26.64
2022-08-23T16:16:28.996Z,26.73
2022-08-23T16:19:00.098Z,26.81
2022-08-23T16:21:30.802Z,26.87
2022-08-23T16:23:59.366Z,26.88
2022-08-23T16:26:35.662Z,26.82
2022-08-23T16:29:10.011Z,26.77
2022-08-23T16:31:39.848Z,26.79
2022-08-23T16:34:12.547Z,26.91
2022-08-23T16:36:44.186Z,27.16
2022-08-23T16:39:15.179Z,27.36
2022-08-23T16:41:43.150Z,27.55
2022-08-23T16:44:11.043Z,27.73
2022-08-23T16:46:43.938Z,27.75
2022-08-23T16:49:16.885Z,27.74
2022-08-23T16:51:46.528Z,27.59
2022-08-23T16:54:14.739Z,27.44
2022-08-23T16:56:43.544Z,27.33
2022-08-23T16:59:13.354Z,27.14
2022-08-23T17:01:55.721Z,26.93
2022-08-23T17:04:30.315Z,26.80
2022-08-23T17:07:00.064Z,26.71
2022-08-23T17:09:29.273Z,26.53
2022-08-23T17:12:01.050Z,26.40
2022-08-23T17:14:28.868Z,26.26
2022-08-23T17:16:56.764Z,26.18
2022-08-23T17:19:24.838Z,26.15
2022-08-23T17:21:54.851Z,26.09
2022-08-23T17:24:23.742Z,26.09
2022-08-23T17:26:51.594Z,26.08
2022-08-23T17:29:20.340Z,26.09
2022-08-23T17:31:48.810Z,26.12
2022-08-23T17:34:16.681Z,26.13
2022-08-23T17:36:50.828Z,26.12
2022-08-23T17:39:27.305Z,26.15
2022-08-23T17:41:57.844Z,26.17
2022-08-23T17:44:25.795Z,26.03
2022-08-23T17:46:53.785Z,25.88
2022-08-23T17:49:21.722Z,25.75
2022-08-23T17:51:49.563Z,25.65
2022-08-23T17:54:18.489Z,25.62
2022-08-23T17:56:49.926Z,25.59
2022-08-23T17:59:22.566Z,25.50
2022-08-23T18:01:52.084Z,25.48
2022-08-23T18:04:19.881Z,25.48
2022-08-23T18:06:47.880Z,25.42
2022-08-23T18:09:16.475Z,25.36
2022-08-23T18:11:44.622Z,25.32
2022-08-23T18:14:12.502Z,25.31
2022-08-23T18:16:45.379Z,25.21
2022-08-23T18:19:13.558Z,25.12
2022-08-23T18:21:43.146Z,25.03
2022-08-23T18:24:11.446Z,24.96
2022-08-23T18:26:59.189Z,24.90
2022-08-23T18:29:29.438Z,24.85
2022-08-23T18:31:57.380Z,24.75
2022-08-23T18:34:25.519Z,24.63
2022-08-23T18:36:53.821Z,24.52
2022-08-23T18:39:27.623Z,24.38
2022-08-23T18:42:05.775Z,24.28
2022-08-23T18:44:33.646Z,24.20
2022-08-23T18:47:03.486Z,24.11
2022-08-23T18:49:33.767Z,24.06
2022-08-23T18:52:02.635Z,24.02
2022-08-23T18:54:33.942Z,24.01
2022-08-23T18:57:03.566Z,23.97
2022-08-23T18:59:31.611Z,23.91
2022-08-23T19:01:59.628Z,23.84
2022-08-23T19:04:27.704Z,23.79
2022-08-23T19:06:55.819Z,23.72
2022-08-23T19:09:23.587Z,23.64
2022-08-23T19:11:51.420Z,23.53
2022-08-23T19:14:19.410Z,23.41
2022-08-23T19:16:48.478Z,23.31
2022-08-23T19:19:18.783Z,23.23
2022-08-23T19:21:47.153Z,23.15
2022-08-23T19:24:15.104Z,23.08
2022-08-23T19:26:47.398Z,23.00
2022-08-23T19:29:18.634Z,22.91
2022-08-23T19:31:48.265Z,22.85
2022-08-23T19:34:19.896Z,22.79
2022-08-23T19:36:54.653Z,22.71
2022-08-23T19:39:27.773Z,22.62
2022-08-23T19:41:55.650Z,22.56
2022-08-23T19:44:24.232Z,22.49
2022-08-23T19:46:52.366Z,22.42
2022-08-23T19:49:20.279Z,22.33
2022-08-23T19:51:48.107Z,22.25
2022-08-23T19:54:16.374Z,22.19
2022-08-23T19:56:54.806Z,22.13
2022-08-23T19:59:30.513Z,22.08
2022-08-23T20:01:59.855Z,22.04
2022-08-23T20:04:32.439Z,22.00
2022-08-23T20:07:04.262Z,21.97
2022-08-23T20:09:33.376Z,21.94
2022-08-23T20:12:02.504Z,21.90
2022-08-23T20:14:33.192Z,21.85
2022-08-23T20:17:04.435Z,21.80
2022-08-23T20:19:32.191Z,21.76
2022-08-23T20:22:19.946Z,21.73
2022-08-23T20:24:51.913Z,21.67
2022-08-23T20:27:28.287Z,21.58
2022-08-23T20:30:06.172Z,21.58
2022-08-23T20:32:34.723Z,21.55
2022-08-23T20:35:06.935Z,21.50
2022-08-23T20:37:35.955Z,21.48
2022-08-23T20:40:07.005Z,21.42
2022-08-23T20:42:34.721Z,21.36
2022-08-23T20:45:02.961Z,21.31
2022-08-23T20:47:30.768Z,21.30
2022-08-23T20:49:58.568Z,21.29
2022-08-23T20:52:26.683Z,21.27
2022-08-23T20:54:54.472Z,21.23
2022-08-23T20:57:22.314Z,21.22
2022-08-23T20:59:50.119Z,21.22
2022-08-23T21:02:18.121Z,21.17
2022-08-23T21:04:46.110Z,21.11
2022-08-23T21:07:15.759Z,21.05
2022-08-23T21:09:43.731Z,21.02
2022-08-23T21:12:11.600Z,21.02
2022-08-23T21:14:39.427Z,20.98
2022-08-23T21:17:07.712Z,20.96
2022-08-23T21:19:35.583Z,20.92
2022-08-23T21:22:03.735Z,20.88
2022-08-23T21:24:32.231Z,20.83
2022-08-23T21:27:00.158Z,20.82
2022-08-23T21:29:27.949Z,20.78
2022-08-23T21:31:55.738Z,20.75
2022-08-23T21:34:23.783Z,20.78
2022-08-23T21:36:52.294Z,20.82
2022-08-23T21:39:20.426Z,20.83
2022-08-23T21:41:48.441Z,20.81
2022-08-23T21:44:20.517Z,20.82
2022-08-23T21:46:49.152Z,20.83
2022-08-23T21:49:18.143Z,20.85
2022-08-23T21:51:46.018Z,20.87
2022-08-23T21:54:15.974Z,20.90
2022-08-23T21:56:45.826Z,20.89
2022-08-23T21:59:18.011Z,20.87
2022-08-23T22:01:46.890Z,20.81
2022-08-23T22:04:16.350Z,20.78
2022-08-23T22:06:47.413Z,20.81
2022-08-23T22:09:25.712Z,20.78
2022-08-23T22:11:55.850Z,20.70
2022-08-23T22:14:31.384Z,20.64
2022-08-23T22:17:00.566Z,20.58
2022-08-23T22:19:28.581Z,20.56
2022-08-23T22:21:56.932Z,20.55
2022-08-23T22:24:26.362Z,20.53
2022-08-23T22:26:55.493Z,20.54
2022-08-23T22:29:24.651Z,20.54
2022-08-23T22:31:52.846Z,20.53
2022-08-23T22:34:20.941Z,20.55
2022-08-23T22:36:51.469Z,20.58
2022-08-23T22:39:22.018Z,20.65
2022-08-23T22:41:50.278Z,20.68
2022-08-23T22:44:18.538Z,20.67
2022-08-23T22:46:46.591Z,20.63
2022-08-23T22:49:14.555Z,20.61
2022-08-23T22:51:42.645Z,20.66
2022-08-23T22:54:12.318Z,20.70
2022-08-23T22:56:49.073Z,20.74
2022-08-23T22:59:20.453Z,20.78
2022-08-23T23:01:54.824Z,20.81
2022-08-23T23:04:26.553Z,20.80
2022-08-23T23:06:55.713Z,20.81
2022-08-23T23:09:25.060Z,20.83
2022-08-23T23:11:54.396Z,20.88
2022-08-23T23:14:22.654Z,20.88
2022-08-23T23:16:50.912Z,20.88
2022-08-23T23:19:39.400Z,20.88
2022-08-23T23:22:09.031Z,20.88
2022-08-23T23:24:39.800Z,20.86
2022-08-23T23:27:08.176Z,20.85
2022-08-23T23:29:36.557Z,20.83
2022-08-23T23:32:05.775Z,20.82
2022-08-23T23:34:33.804Z,20.83
2022-08-23T23:37:02.607Z,20.83
2022-08-23T23:39:30.724Z,20.79
2022-08-23T23:41:58.672Z,20.78
2022-08-23T23:44:31.087Z,20.74
2022-08-23T23:47:03.108Z,20.68
2022-08-23T23:49:32.985Z,20.62
2022-08-23T23:52:05.807Z,20.56
2022-08-23T23:54:35.630Z,20.54
2022-08-23T23:57:06.477Z,20.52
2022-08-23T23:59:35.230Z,20.50
